Terminal Aerodrome Forecast
Issued by NWS Wilmington, OH

Current Version | Previous Version | Text Only | Print | Product List | Glossary Off
Versions: 1 2 3 4 5 6 7 8 9 10 11 12 13 14 15 16 17 18 19 20 21 22 23 24 25 26 27 28 29 30 31 32 33

195
FTUS41 KILN 281522 AAA
TAFCVG
TAF AMD
KCVG 281522Z 2815/2918 23006KT P6SM OVC008
     FM281800 25008KT P6SM VCTS BKN040CB
     FM282200 27009KT P6SM SCT050
     FM290800 28004KT P6SM OVC012
     FM291400 32006KT P6SM BKN025=

USA.gov is the U.S. government's official web portal to all federal, state and local government web resources and services.